Etusivu
METAR-TAF:

METAR-TAF

Lentoasemat :

Bodensee

Friedrichshafen, Saksa

Leveyspiiri: 47-40N, Pituuspiiri: 009-31E, korkeus merenpinnasta: 416 m

Tämänhetkinen sää

Tämä raportti tehtiin 41 minuuttia sitten, kello 18.50 UTC
Tuuli 4 kn idästä/koillisesta
Lämpötila 4°C
Kosteus 87%
Ilmanpaine 1005 hPa
Näkyvyys 10 km tai enemmän
ei pilviä alle 1500 m:ssä eikä cumulonimbus-pilviä

METAR: EDNY 121850Z 06004KT CAVOK 04/02 Q1005

Aika: 20:31 (19:31 UTC)

Sääennuste

Tämä raportti tehtiin 2 tuntia ja 31 minuuttia sitten, kello 17.00 UTC
Ennuste voimassa 12. päivästä klo 18 UTC - 13. päivään klo 18 UTC
Tuuli 3 kn eri suunnista
Näkyvyys 10 km tai enemmän
Hajonneita pilviä 2500 ft:n korkeudessa
Ajoittain
13. päivästä klo 05 UTC - 13. päivään klo 07 UTC
Hajonneita pilviä 800 ft:n korkeudessa

TAF: EDNY 121700Z 1218/1318 VRB03KT 9999 BKN025 TEMPO 1305/1307 BKN008

Säähavainnot ja -ennusteet yli 4000 lentoasemalta (METAR- ja TAF-raportit).

Käytössä olevat sääasemat on merkitty karttaan keltaisilla ja punaisilla pisteillä.

Aseta hiiri pisteen päälle nähdäksesi sääaseman nimen.

Klikkaa sitten nähdäksesi säähavainnot ja -ennusteet.

Kartan vaihtaminen: klikkaa mustalla rastilla varustettuja vihreitä pisteitä, niin voit zoomata sisään; viivalla varustettua vihreää pistettä, niin voit zoomata ulos tai vihreitä nuolia, niin pääset viereisille kartoille.


METAR-TAF: